Time;durP1;ratioP1;P1;durP2;ratioP2;P2;SDS_P1;SDS_P2;PMS_P1;PMS_P2;Temp;Humidity;BMP_temperature;BMP_pressure;BME280_temperature;BME280_humidity;BME280_pressure;Samples;Min_cycle;Max_cycle;Signal;HPM_P1;HPM_P2
2021/06/18 00:00:16;;;;;;;4.93;3.28;;;21.30;99.90;;;;;;5070702;28;20673;-58
2021/06/18 00:02:44;;;;;;;6.68;3.30;;;21.10;99.90;;;;;;5070649;28;20212;-54
2021/06/18 00:05:13;;;;;;;4.28;3.25;;;20.90;99.90;;;;;;5070408;28;20258;-53
2021/06/18 00:07:40;;;;;;;7.38;3.53;;;20.80;99.90;;;;;;5072155;28;20584;-54
2021/06/18 00:10:09;;;;;;;6.13;3.50;;;20.80;99.90;;;;;;5074431;28;20895;-54
2021/06/18 00:12:36;;;;;;;6.35;3.33;;;20.80;99.90;;;;;;5074204;28;20478;-54
2021/06/18 00:15:03;;;;;;;3.85;2.92;;;20.70;99.90;;;;;;5074352;28;20300;-54
2021/06/18 00:17:30;;;;;;;5.18;3.33;;;20.60;99.90;;;;;;5074120;28;20274;-56
2021/06/18 00:19:58;;;;;;;4.40;3.28;;;20.50;99.90;;;;;;5073812;28;20650;-54
2021/06/18 00:22:25;;;;;;;5.82;3.30;;;20.30;99.90;;;;;;5073702;28;20695;-54
2021/06/18 00:24:53;;;;;;;5.57;3.22;;;20.20;99.90;;;;;;5073885;28;20201;-54
2021/06/18 00:27:19;;;;;;;5.28;3.47;;;20.20;99.90;;;;;;5073894;28;20221;-54
2021/06/18 00:29:47;;;;;;;5.60;3.40;;;20.20;99.90;;;;;;5073568;28;20228;-56
2021/06/18 00:32:14;;;;;;;4.63;3.40;;;20.10;99.90;;;;;;5073653;28;20205;-53
2021/06/18 00:34:41;;;;;;;5.95;3.70;;;20.10;99.90;;;;;;5073460;28;20204;-54
2021/06/18 00:37:09;;;;;;;3.55;2.80;;;20.00;99.90;;;;;;5073357;28;20205;-54
2021/06/18 00:39:35;;;;;;;3.42;3.13;;;19.90;99.90;;;;;;5073637;28;20221;-54
2021/06/18 00:42:03;;;;;;;3.47;3.17;;;19.90;99.90;;;;;;5073691;28;20507;-54
2021/06/18 00:44:29;;;;;;;4.72;3.05;;;19.90;99.90;;;;;;5073527;28;20510;-54
2021/06/18 00:46:56;;;;;;;6.40;3.47;;;20.00;99.90;;;;;;5073322;28;20642;-54
2021/06/18 00:49:25;;;;;;;4.35;3.30;;;20.00;99.90;;;;;;5073159;28;20225;-54
2021/06/18 00:51:52;;;;;;;5.68;3.10;;;20.00;99.90;;;;;;5073501;28;20208;-56
2021/06/18 00:54:28;;;;;;;7.78;3.28;;;19.90;99.90;;;;;;5073290;28;20209;-55
2021/06/18 00:56:55;;;;;;;6.18;3.42;;;19.90;99.90;;;;;;5073277;28;20200;-54
2021/06/18 00:59:23;;;;;;;4.22;3.28;;;19.80;99.90;;;;;;5072843;28;20229;-53
2021/06/18 01:01:50;;;;;;;4.22;3.28;;;19.90;99.90;;;;;;5073112;28;20560;-56
2021/06/18 01:04:17;;;;;;;5.97;3.40;;;19.80;99.90;;;;;;5073224;28;20208;-56
2021/06/18 01:06:50;;;;;;;6.43;3.47;;;19.90;99.90;;;;;;5073171;28;20205;-56
2021/06/18 01:09:20;;;;;;;4.13;2.90;;;19.90;99.90;;;;;;5072914;28;20221;-55
2021/06/18 01:11:53;;;;;;;4.32;3.10;;;20.00;99.90;;;;;;5072887;28;20696;-55
2021/06/18 01:14:29;;;;;;;5.68;2.95;;;20.10;99.90;;;;;;5073325;28;20205;-57
2021/06/18 01:17:03;;;;;;;3.50;3.20;;;20.10;99.90;;;;;;5073101;28;20215;-56
2021/06/18 01:19:43;;;;;;;4.32;3.50;;;20.10;99.90;;;;;;5072981;28;20252;-57
2021/06/18 01:22:14;;;;;;;5.30;3.20;;;20.20;99.90;;;;;;5073146;28;20240;-57
2021/06/18 01:24:56;;;;;;;5.35;3.03;;;20.20;99.90;;;;;;5072973;28;20212;-57
2021/06/18 01:27:40;;;;;;;3.78;3.40;;;20.20;99.90;;;;;;5073490;28;20224;-57
2021/06/18 01:30:10;;;;;;;5.22;3.65;;;20.30;99.90;;;;;;5072773;28;20734;-57
2021/06/18 01:32:40;;;;;;;4.25;3.65;;;20.30;99.90;;;;;;5072874;28;20205;-55
2021/06/18 01:35:12;;;;;;;4.40;3.58;;;20.30;99.90;;;;;;5072339;28;20200;-55
2021/06/18 01:37:40;;;;;;;8.15;3.92;;;20.30;99.90;;;;;;5072757;28;20212;-55
2021/06/18 01:40:10;;;;;;;5.63;3.78;;;20.30;99.90;;;;;;5072619;28;20554;-56
2021/06/18 01:42:41;;;;;;;4.60;3.85;;;20.30;99.90;;;;;;5072566;28;20338;-56
2021/06/18 01:45:11;;;;;;;7.30;3.90;;;20.30;99.90;;;;;;5072332;28;20208;-56
2021/06/18 01:47:39;;;;;;;4.63;3.70;;;20.30;99.90;;;;;;5072227;28;20220;-56
2021/06/18 01:50:08;;;;;;;4.28;3.80;;;20.30;99.90;;;;;;5072925;28;20212;-56
2021/06/18 01:52:37;;;;;;;4.95;3.58;;;20.30;99.90;;;;;;5072892;28;20703;-57
2021/06/18 01:55:06;;;;;;;4.57;3.53;;;20.30;99.90;;;;;;5072282;28;20208;-56
2021/06/18 01:57:35;;;;;;;4.25;3.40;;;20.30;99.90;;;;;;5072241;28;20860;-55
2021/06/18 02:00:03;;;;;;;4.63;2.97;;;20.30;99.90;;;;;;5099500;22;20235;-59
2021/06/18 02:02:32;;;;;;;3.50;3.17;;;20.30;99.90;;;;;;5092356;28;20208;-59
2021/06/18 02:05:00;;;;;;;5.38;3.30;;;20.30;99.90;;;;;;5092290;28;20250;-59
2021/06/18 02:07:30;;;;;;;4.25;3.03;;;20.30;99.90;;;;;;5092220;28;20224;-59
2021/06/18 02:10:00;;;;;;;8.38;3.00;;;20.20;99.90;;;;;;5091913;28;20281;-59
2021/06/18 02:12:27;;;;;;;4.53;2.67;;;20.20;99.90;;;;;;5092169;28;20667;-60
2021/06/18 02:14:57;;;;;;;4.68;3.05;;;20.20;99.90;;;;;;5091923;28;20211;-60
2021/06/18 02:17:26;;;;;;;7.78;2.78;;;20.10;99.90;;;;;;5092281;28;20621;-60
2021/06/18 02:19:55;;;;;;;5.13;3.63;;;20.00;99.90;;;;;;5092120;28;20228;-59
2021/06/18 02:22:23;;;;;;;3.92;3.30;;;19.90;99.90;;;;;;5092229;28;20212;-59
2021/06/18 02:24:52;;;;;;;8.60;3.33;;;19.80;99.90;;;;;;5092076;28;20211;-60
2021/06/18 02:27:19;;;;;;;8.50;3.08;;;19.70;99.90;;;;;;5091732;28;20561;-60
2021/06/18 02:29:47;;;;;;;7.43;3.15;;;19.50;99.90;;;;;;5091501;28;20228;-60
2021/06/18 02:32:15;;;;;;;6.78;3.78;;;19.50;99.90;;;;;;5092192;28;20207;-60
2021/06/18 02:34:42;;;;;;;5.18;3.05;;;19.40;99.90;;;;;;5091951;28;20664;-59
2021/06/18 02:37:12;;;;;;;11.25;3.40;;;19.40;99.90;;;;;;5091893;28;20659;-59
2021/06/18 02:39:38;;;;;;;5.75;3.70;;;19.40;99.90;;;;;;5091938;28;20628;-59
2021/06/18 02:42:06;;;;;;;7.13;4.40;;;19.20;99.90;;;;;;5091790;28;20204;-59
2021/06/18 02:44:33;;;;;;;9.70;5.68;;;19.10;99.90;;;;;;5091924;28;20215;-60
2021/06/18 02:47:07;;;;;;;8.10;5.72;;;19.10;99.90;;;;;;5091752;28;20203;-59
2021/06/18 02:49:42;;;;;;;10.82;5.03;;;19.10;99.90;;;;;;5091791;28;20231;-60
2021/06/18 02:52:16;;;;;;;6.15;4.05;;;19.10;99.90;;;;;;5091756;28;20203;-60
2021/06/18 02:54:46;;;;;;;5.50;3.65;;;19.10;99.90;;;;;;5091905;28;20200;-61
2021/06/18 02:57:19;;;;;;;4.30;3.55;;;19.10;99.90;;;;;;5091652;28;20212;-60
2021/06/18 02:59:52;;;;;;;4.13;3.40;;;19.10;99.90;;;;;;5091362;28;20282;-60
2021/06/18 03:02:24;;;;;;;5.22;3.60;;;19.00;99.90;;;;;;5091632;28;20204;-59
2021/06/18 03:04:54;;;;;;;8.57;3.55;;;18.90;99.90;;;;;;5091242;28;20637;-60
2021/06/18 03:07:27;;;;;;;3.75;3.20;;;18.90;99.90;;;;;;5091540;28;20580;-60
2021/06/18 03:09:57;;;;;;;5.22;3.10;;;18.80;99.90;;;;;;5091459;28;20224;-60
2021/06/18 03:12:26;;;;;;;4.15;3.55;;;18.80;99.90;;;;;;5091497;28;20211;-59
2021/06/18 03:14:56;;;;;;;7.00;3.83;;;18.80;99.90;;;;;;5091258;28;20297;-60
2021/06/18 03:17:24;;;;;;;5.15;3.10;;;18.80;99.90;;;;;;5091194;28;20208;-59
2021/06/18 03:19:54;;;;;;;5.75;3.17;;;18.80;99.90;;;;;;5091326;28;20224;-60
2021/06/18 03:22:23;;;;;;;4.18;3.40;;;18.80;99.90;;;;;;5091811;28;20204;-59
2021/06/18 03:24:52;;;;;;;6.82;2.97;;;18.80;99.90;;;;;;5091049;28;20203;-60
2021/06/18 03:27:20;;;;;;;4.63;3.20;;;18.90;99.90;;;;;;5091696;28;20453;-59
2021/06/18 03:29:49;;;;;;;4.55;3.20;;;18.90;99.90;;;;;;5091029;28;20489;-60
2021/06/18 03:32:17;;;;;;;3.70;3.10;;;18.90;99.90;;;;;;5091669;28;20200;-59
2021/06/18 03:34:44;;;;;;;7.68;4.05;;;19.00;99.90;;;;;;5091136;28;20215;-59
2021/06/18 03:37:11;;;;;;;5.70;4.20;;;19.00;99.90;;;;;;5091338;28;20235;-59
2021/06/18 03:39:41;;;;;;;6.55;4.10;;;19.00;99.90;;;;;;5091238;28;20216;-59
2021/06/18 03:42:09;;;;;;;7.05;4.03;;;19.10;99.90;;;;;;5091656;28;20212;-59
2021/06/18 03:44:36;;;;;;;7.03;4.30;;;19.20;99.90;;;;;;5095052;28;20215;-59
2021/06/18 03:47:05;;;;;;;7.22;4.15;;;19.40;99.90;;;;;;5095759;28;20215;-59
2021/06/18 03:49:32;;;;;;;5.53;4.25;;;19.60;99.90;;;;;;5096089;28;20228;-59
2021/06/18 03:51:59;;;;;;;9.18;4.30;;;19.60;99.90;;;;;;5095249;28;20212;-59
2021/06/18 03:54:26;;;;;;;7.32;4.20;;;19.70;99.90;;;;;;5094972;28;20208;-60
2021/06/18 03:56:54;;;;;;;9.07;4.20;;;19.80;99.90;;;;;;5095037;28;20208;-59
2021/06/18 03:59:22;;;;;;;5.70;4.05;;;20.00;99.90;;;;;;5095273;28;20293;-59
2021/06/18 04:01:52;;;;;;;7.93;4.10;;;20.10;99.90;;;;;;5095500;28;20243;-60
2021/06/18 04:04:21;;;;;;;4.53;3.90;;;20.10;99.90;;;;;;5095130;28;20612;-59
2021/06/18 04:06:49;;;;;;;4.35;3.90;;;20.20;99.90;;;;;;5094849;28;20204;-59
2021/06/18 04:09:17;;;;;;;6.07;4.18;;;20.30;99.90;;;;;;5094428;28;20780;-59
2021/06/18 04:11:45;;;;;;;4.55;3.83;;;20.40;99.90;;;;;;5094564;28;20690;-60
2021/06/18 04:14:13;;;;;;;4.20;3.78;;;20.50;99.90;;;;;;5094663;28;20240;-60
2021/06/18 04:16:41;;;;;;;6.47;4.10;;;20.60;99.90;;;;;;5094337;28;20701;-60
2021/06/18 04:19:09;;;;;;;7.13;3.72;;;20.70;99.90;;;;;;5094280;28;20217;-60
2021/06/18 04:21:40;;;;;;;6.30;3.65;;;20.70;99.90;;;;;;5094810;28;20235;-59
2021/06/18 04:24:08;;;;;;;8.23;4.10;;;20.80;99.90;;;;;;5094435;28;20219;-60
2021/06/18 04:26:35;;;;;;;5.13;3.92;;;20.90;99.90;;;;;;5094319;28;20475;-60
2021/06/18 04:29:02;;;;;;;5.47;4.00;;;21.00;99.90;;;;;;5094054;28;20232;-60
2021/06/18 04:31:30;;;;;;;5.65;4.03;;;21.10;99.90;;;;;;5094375;28;20211;-59
2021/06/18 04:33:57;;;;;;;7.95;4.00;;;21.20;99.90;;;;;;5094223;28;20699;-59
2021/06/18 04:36:23;;;;;;;5.43;4.20;;;21.30;99.90;;;;;;5094497;28;20208;-60
2021/06/18 04:38:50;;;;;;;5.70;3.80;;;21.30;99.90;;;;;;5094825;28;20228;-59
2021/06/18 04:41:17;;;;;;;5.80;4.32;;;21.40;99.90;;;;;;5094470;28;20204;-59
2021/06/18 04:43:44;;;;;;;7.95;4.45;;;21.50;99.90;;;;;;5094128;28;20716;-59
2021/06/18 04:46:11;;;;;;;8.32;4.47;;;21.80;99.90;;;;;;5094179;28;20614;-60
2021/06/18 04:48:39;;;;;;;4.85;3.67;;;22.90;99.90;;;;;;5093703;28;20228;-60
2021/06/18 04:51:05;;;;;;;6.05;3.65;;;24.50;99.90;;;;;;5094038;28;20594;-60
2021/06/18 04:53:32;;;;;;;5.72;3.55;;;26.10;99.90;;;;;;5093406;28;20208;-60
2021/06/18 04:56:01;;;;;;;4.63;3.42;;;27.60;96.00;;;;;;5094189;28;20679;-60
2021/06/18 04:58:28;;;;;;;7.18;3.78;;;29.00;92.80;;;;;;5094266;28;20232;-60
2021/06/18 05:00:55;;;;;;;6.10;3.53;;;30.10;89.20;;;;;;5095040;28;20200;-60
2021/06/18 05:03:22;;;;;;;14.68;6.00;;;31.00;81.10;;;;;;5094146;28;20671;-60
2021/06/18 05:05:50;;;;;;;6.15;4.00;;;31.70;77.00;;;;;;5093785;28;20208;-61
2021/06/18 05:08:17;;;;;;;5.13;3.58;;;32.50;73.70;;;;;;5093302;28;20679;-60
2021/06/18 05:10:43;;;;;;;4.10;3.45;;;33.10;67.30;;;;;;5093840;28;20281;-60
2021/06/18 05:13:10;;;;;;;6.60;3.50;;;33.80;64.70;;;;;;5093665;28;20203;-60
2021/06/18 05:15:37;;;;;;;6.07;3.10;;;34.50;61.70;;;;;;5093171;28;20208;-60
2021/06/18 05:18:03;;;;;;;6.53;3.53;;;35.20;59.70;;;;;;5093220;28;20211;-60
2021/06/18 05:20:30;;;;;;;5.70;3.40;;;35.60;57.40;;;;;;5093556;28;20223;-61
2021/06/18 05:22:58;;;;;;;4.75;3.20;;;36.10;55.50;;;;;;5093398;28;20671;-60
2021/06/18 05:25:25;;;;;;;3.60;2.83;;;36.70;54.20;;;;;;5093447;28;20205;-60
2021/06/18 05:27:52;;;;;;;5.47;3.38;;;37.40;52.70;;;;;;5093348;28;20233;-60
2021/06/18 05:30:19;;;;;;;6.65;3.40;;;38.10;50.70;;;;;;5093020;28;20228;-61
2021/06/18 05:32:46;;;;;;;5.32;3.28;;;38.70;49.30;;;;;;5093189;28;20616;-61
2021/06/18 05:35:13;;;;;;;5.78;3.40;;;39.30;48.60;;;;;;5093100;28;20215;-60
2021/06/18 05:37:40;;;;;;;7.15;3.53;;;39.70;47.70;;;;;;5092936;28;20204;-61
2021/06/18 05:40:09;;;;;;;7.40;3.67;;;39.90;47.10;;;;;;5092815;28;20707;-61
2021/06/18 05:42:36;;;;;;;8.18;3.50;;;40.20;46.50;;;;;;5092874;28;20671;-61
2021/06/18 05:45:03;;;;;;;5.53;3.38;;;40.40;45.80;;;;;;5092771;28;20257;-60
2021/06/18 05:47:30;;;;;;;13.02;7.88;;;40.40;45.70;;;;;;5093407;28;20211;-62
2021/06/18 05:49:57;;;;;;;6.78;4.80;;;40.30;45.60;;;;;;5092713;28;20255;-62
2021/06/18 05:52:24;;;;;;;4.20;3.40;;;40.50;45.00;;;;;;5092958;28;20211;-61
2021/06/18 05:54:50;;;;;;;8.18;3.70;;;40.90;44.00;;;;;;5092808;28;20208;-61
2021/06/18 05:57:18;;;;;;;9.95;5.20;;;41.10;44.10;;;;;;5092813;28;20208;-60
2021/06/18 05:59:45;;;;;;;5.82;3.78;;;41.50;43.60;;;;;;5092168;28;20482;-60
2021/06/18 06:02:12;;;;;;;5.40;3.97;;;42.00;42.60;;;;;;5092928;28;20679;-60
2021/06/18 06:04:38;;;;;;;10.13;3.63;;;42.20;41.60;;;;;;5091958;28;20204;-60
2021/06/18 06:07:05;;;;;;;5.63;3.50;;;42.10;41.70;;;;;;5092396;28;20249;-61
2021/06/18 06:09:32;;;;;;;8.48;4.00;;;42.10;41.80;;;;;;5091932;28;20577;-61
2021/06/18 06:11:59;;;;;;;5.15;4.15;;;42.00;41.70;;;;;;5092202;28;20250;-60
2021/06/18 06:14:26;;;;;;;10.07;3.97;;;42.50;41.10;;;;;;5091977;28;20203;-60
2021/06/18 06:16:53;;;;;;;4.43;3.22;;;42.90;40.00;;;;;;5092463;28;20200;-60
2021/06/18 06:19:20;;;;;;;6.45;3.22;;;43.60;39.50;;;;;;5092141;28;20650;-60
2021/06/18 06:21:46;;;;;;;3.33;3.03;;;44.00;39.20;;;;;;5092371;28;20211;-61
2021/06/18 06:24:14;;;;;;;4.00;3.20;;;44.30;38.30;;;;;;5092141;28;20200;-60
2021/06/18 06:26:41;;;;;;;5.43;3.22;;;43.90;37.90;;;;;;5092441;28;20203;-60
2021/06/18 06:29:08;;;;;;;5.68;3.50;;;43.30;39.40;;;;;;5091684;28;20601;-61
2021/06/18 06:31:36;;;;;;;7.80;3.35;;;43.40;39.30;;;;;;5092783;28;20253;-60
2021/06/18 06:34:02;;;;;;;5.18;3.08;;;43.10;39.20;;;;;;5092063;28;20812;-60
2021/06/18 06:36:29;;;;;;;6.32;3.13;;;42.90;39.30;;;;;;5092504;28;20615;-60
2021/06/18 06:38:56;;;;;;;6.22;3.65;;;42.80;39.40;;;;;;5092280;28;20226;-60
2021/06/18 06:41:22;;;;;;;7.60;3.50;;;42.80;39.10;;;;;;5092453;28;20589;-60
2021/06/18 06:43:49;;;;;;;4.32;3.92;;;42.90;39.30;;;;;;5091952;28;20214;-60
2021/06/18 06:46:16;;;;;;;7.28;5.25;;;43.50;38.70;;;;;;5092258;28;20208;-60
2021/06/18 06:48:44;;;;;;;5.20;3.38;;;43.80;37.50;;;;;;5091343;28;20627;-60
2021/06/18 06:51:10;;;;;;;5.20;3.30;;;44.30;37.30;;;;;;5091870;28;20554;-60
2021/06/18 06:53:37;;;;;;;3.35;2.90;;;44.50;37.00;;;;;;5091476;28;20622;-60
2021/06/18 06:56:04;;;;;;;3.20;2.85;;;44.50;37.00;;;;;;5091676;28;20219;-60
2021/06/18 06:58:31;;;;;;;4.35;2.83;;;43.90;37.60;;;;;;5090951;28;20310;-60
2021/06/18 07:00:58;;;;;;;5.07;2.90;;;44.00;37.30;;;;;;5091683;28;20245;-60
2021/06/18 07:03:24;;;;;;;8.27;3.17;;;44.70;36.80;;;;;;5091360;28;20235;-60
2021/06/18 07:05:53;;;;;;;6.70;2.70;;;45.60;35.30;;;;;;5091355;28;20207;-60
2021/06/18 07:08:21;;;;;;;6.25;2.97;;;45.70;35.50;;;;;;5091132;28;20207;-60
2021/06/18 07:10:49;;;;;;;6.53;3.03;;;46.00;35.70;;;;;;5091283;28;20234;-60
2021/06/18 07:13:16;;;;;;;4.70;3.15;;;46.50;34.70;;;;;;5091718;28;20203;-61
2021/06/18 07:15:43;;;;;;;7.07;3.13;;;46.90;34.20;;;;;;5085662;28;21052;-60
2021/06/18 07:18:10;;;;;;;3.60;2.72;;;47.40;34.00;;;;;;5070727;28;20574;-60
2021/06/18 07:20:37;;;;;;;5.38;3.38;;;48.00;33.30;;;;;;5070697;28;20208;-60
2021/06/18 07:23:05;;;;;;;3.67;2.63;;;48.60;32.20;;;;;;5070859;28;20670;-60
2021/06/18 07:25:32;;;;;;;4.75;3.05;;;49.10;31.70;;;;;;5070673;28;20208;-60
2021/06/18 07:27:59;;;;;;;5.72;2.75;;;49.10;31.60;;;;;;5070685;28;20215;-61
2021/06/18 07:30:25;;;;;;;5.45;2.80;;;49.10;31.40;;;;;;5070597;28;20228;-60
2021/06/18 07:32:52;;;;;;;5.32;2.70;;;48.90;31.60;;;;;;5070527;28;20212;-60
2021/06/18 07:35:19;;;;;;;4.85;2.72;;;47.90;32.20;;;;;;5070913;28;20231;-59
2021/06/18 07:37:46;;;;;;;6.38;3.00;;;47.30;33.00;;;;;;5070583;28;20207;-61
2021/06/18 07:40:18;;;;;;;6.38;2.97;;;47.50;33.00;;;;;;5070758;28;20227;-60
2021/06/18 07:42:46;;;;;;;6.78;2.83;;;48.30;32.40;;;;;;5070859;28;20212;-59
2021/06/18 07:45:14;;;;;;;6.95;4.22;;;48.90;31.50;;;;;;5070613;28;20200;-60
2021/06/18 07:47:41;;;;;;;10.43;3.60;;;49.20;30.90;;;;;;5070697;28;20208;-63
2021/06/18 07:50:09;;;;;;;6.22;2.90;;;48.90;31.10;;;;;;5069591;28;20240;-62
2021/06/18 07:52:36;;;;;;;6.40;3.25;;;48.60;31.30;;;;;;5070836;28;20762;-63
2021/06/18 07:55:03;;;;;;;4.82;3.03;;;47.50;32.30;;;;;;5070662;28;20600;-61
2021/06/18 07:57:31;;;;;;;6.00;3.08;;;47.10;32.60;;;;;;5070385;28;20687;-62
2021/06/18 07:59:58;;;;;;;6.30;2.90;;;47.70;32.20;;;;;;5070720;28;20358;-64
2021/06/18 08:02:25;;;;;;;8.68;3.05;;;48.50;31.60;;;;;;5070789;28;20204;-61
2021/06/18 08:04:52;;;;;;;8.55;3.58;;;48.60;31.50;;;;;;5070803;28;20211;-65
2021/06/18 08:07:19;;;;;;;5.32;3.10;;;48.90;31.30;;;;;;5070371;28;20570;-63
2021/06/18 08:09:46;;;;;;;6.45;3.40;;;49.00;31.10;;;;;;5070658;28;20228;-62
2021/06/18 08:12:13;;;;;;;5.60;3.63;;;48.80;31.30;;;;;;5070934;28;20400;-62
2021/06/18 08:14:41;;;;;;;7.75;3.30;;;48.50;31.80;;;;;;5068051;28;20201;-65
2021/06/18 08:17:07;;;;;;;5.20;3.10;;;48.40;31.70;;;;;;5071082;28;20221;-65
2021/06/18 08:19:34;;;;;;;5.93;3.33;;;48.60;31.60;;;;;;5070039;28;20285;-65
2021/06/18 08:22:02;;;;;;;4.00;3.15;;;48.60;31.60;;;;;;5070644;28;20208;-61
2021/06/18 08:24:29;;;;;;;5.22;3.30;;;48.20;32.00;;;;;;5070336;28;20214;-61
2021/06/18 08:26:56;;;;;;;5.40;3.47;;;47.90;32.30;;;;;;5070612;28;20228;-62
2021/06/18 08:29:22;;;;;;;5.35;3.45;;;47.80;32.30;;;;;;5072790;28;20221;-61
2021/06/18 08:31:50;;;;;;;4.70;3.53;;;47.90;32.20;;;;;;5073842;28;20273;-61
2021/06/18 08:34:17;;;;;;;6.88;3.70;;;47.80;32.50;;;;;;5074036;28;20235;-61
2021/06/18 08:36:44;;;;;;;6.30;3.42;;;48.00;32.20;;;;;;5074124;28;20207;-63
2021/06/18 08:39:11;;;;;;;7.72;3.90;;;48.20;32.00;;;;;;5073583;28;20231;-62
2021/06/18 08:41:38;;;;;;;6.18;3.28;;;48.00;32.00;;;;;;5073880;28;20212;-62
2021/06/18 08:44:06;;;;;;;6.78;3.58;;;47.10;32.90;;;;;;5073764;28;20208;-62
2021/06/18 08:46:33;;;;;;;4.18;3.40;;;46.90;33.30;;;;;;5073731;28;20208;-61
2021/06/18 08:49:01;;;;;;;7.63;3.83;;;47.00;33.10;;;;;;5073779;28;20224;-64
2021/06/18 08:51:28;;;;;;;7.65;3.90;;;46.60;33.40;;;;;;5073447;28;20228;-61
2021/06/18 08:53:55;;;;;;;7.30;3.50;;;45.90;34.10;;;;;;5073845;28;20207;-62
2021/06/18 08:56:21;;;;;;;6.40;3.67;;;44.40;35.60;;;;;;5073473;28;20258;-61
2021/06/18 08:58:49;;;;;;;6.32;4.10;;;42.80;37.40;;;;;;5073223;28;20236;-61
2021/06/18 09:01:16;;;;;;;6.75;4.00;;;41.10;39.30;;;;;;5073534;28;20212;-61
2021/06/18 09:03:45;;;;;;;5.97;4.40;;;39.80;41.20;;;;;;5073479;28;20581;-62
2021/06/18 09:06:27;;;;;;;8.20;4.10;;;38.50;43.20;;;;;;5073618;28;20316;-61
2021/06/18 09:09:14;;;;;;;6.03;4.43;;;37.20;45.50;;;;;;5073101;28;20842;-61
2021/06/18 09:11:42;;;;;;;6.60;4.45;;;36.20;46.90;;;;;;5073202;28;20236;-61
2021/06/18 09:14:21;;;;;;;9.68;4.40;;;35.40;48.00;;;;;;5073351;28;20208;-63
2021/06/18 09:17:05;;;;;;;12.35;4.65;;;34.90;48.80;;;;;;5073271;28;20213;-61
2021/06/18 09:19:32;;;;;;;7.05;4.40;;;34.40;49.80;;;;;;5072950;28;20224;-60
2021/06/18 09:22:02;;;;;;;6.35;4.35;;;34.20;50.20;;;;;;5073490;28;20205;-61
2021/06/18 09:24:30;;;;;;;6.65;4.45;;;34.00;51.50;;;;;;5072956;28;20205;-61
2021/06/18 09:26:57;;;;;;;7.28;4.30;;;33.90;51.10;;;;;;5073102;28;20212;-61
2021/06/18 09:29:23;;;;;;;4.93;4.40;;;33.90;51.90;;;;;;5072830;28;20708;-60
2021/06/18 09:31:52;;;;;;;6.63;4.40;;;33.60;52.60;;;;;;5072792;28;20243;-60
2021/06/18 09:34:44;;;;;;;7.32;4.63;;;33.30;53.40;;;;;;5072611;28;20208;-61
2021/06/18 09:37:18;;;;;;;9.65;4.97;;;33.00;53.60;;;;;;5072951;28;20209;-60
2021/06/18 09:39:56;;;;;;;5.45;4.50;;;32.70;53.50;;;;;;5071429;28;20224;-60
2021/06/18 09:42:24;;;;;;;7.00;4.13;;;32.60;54.50;;;;;;5072595;28;20211;-60
2021/06/18 09:45:01;;;;;;;8.35;4.43;;;32.70;53.60;;;;;;5072370;28;20201;-60
2021/06/18 09:47:28;;;;;;;6.60;4.40;;;32.70;53.10;;;;;;5072595;28;20682;-60
2021/06/18 09:49:54;;;;;;;6.93;4.22;;;32.90;53.20;;;;;;5072371;28;20290;-60
2021/06/18 09:52:24;;;;;;;5.28;4.30;;;33.00;52.70;;;;;;5072513;28;20262;-60
2021/06/18 09:54:53;;;;;;;4.97;4.10;;;33.00;51.50;;;;;;5072307;28;20205;-60
2021/06/18 09:57:21;;;;;;;6.57;4.20;;;32.90;51.70;;;;;;5072300;28;20205;-61
2021/06/18 09:59:59;;;;;;;4.97;3.90;;;32.90;51.70;;;;;;5072089;28;20243;-61
2021/06/18 10:02:43;;;;;;;5.63;4.20;;;32.90;51.70;;;;;;5072375;28;20201;-61
2021/06/18 10:05:13;;;;;;;6.18;3.92;;;32.90;51.80;;;;;;5072251;28;20212;-60
2021/06/18 10:07:42;;;;;;;10.23;4.07;;;33.00;51.80;;;;;;5072297;28;20201;-62
2021/06/18 10:10:12;;;;;;;4.93;3.90;;;33.10;51.90;;;;;;5071865;28;20306;-60
2021/06/18 10:12:39;;;;;;;5.95;4.10;;;33.10;51.20;;;;;;5072111;28;20676;-60
2021/06/18 10:15:08;;;;;;;5.15;4.00;;;33.10;51.80;;;;;;5071831;28;20258;-59
2021/06/18 10:17:36;;;;;;;5.70;4.13;;;33.00;52.50;;;;;;5072141;28;20205;-60
2021/06/18 10:20:07;;;;;;;5.13;4.00;;;33.10;52.40;;;;;;5071632;28;20313;-60
2021/06/18 10:22:37;;;;;;;5.70;4.25;;;33.10;52.50;;;;;;5071954;28;20209;-60
2021/06/18 10:25:10;;;;;;;4.18;3.78;;;33.30;52.50;;;;;;5071838;28;20211;-61
2021/06/18 10:27:42;;;;;;;7.13;4.20;;;33.40;51.30;;;;;;5071702;28;20209;-60
2021/06/18 10:30:29;;;;;;;4.63;3.78;;;33.40;52.00;;;;;;5071481;28;20800;-61
2021/06/18 10:32:57;;;;;;;18.80;5.13;;;33.50;52.20;;;;;;5071673;28;20684;-60
2021/06/18 10:35:52;;;;;;;5.20;4.32;;;33.60;52.10;;;;;;5071583;28;20646;-60
2021/06/18 10:38:33;;;;;;;4.85;3.97;;;33.80;51.60;;;;;;5053464;28;20761;-61
2021/06/18 10:41:04;;;;;;;4.80;3.97;;;33.80;51.50;;;;;;5071328;28;20205;-62
2021/06/18 10:43:41;;;;;;;4.25;3.20;;;33.80;51.80;;;;;;5071347;28;20612;-60
2021/06/18 10:46:14;;;;;;;6.22;4.10;;;33.90;49.00;;;;;;5071236;28;20212;-61
2021/06/18 10:49:00;;;;;;;8.45;3.75;;;34.00;48.50;;;;;;5071399;28;20270;-61
2021/06/18 10:51:44;;;;;;;6.78;3.90;;;34.00;50.40;;;;;;5071299;28;20232;-60
2021/06/18 10:54:17;;;;;;;5.20;3.80;;;34.00;49.80;;;;;;5072450;28;20209;-61
2021/06/18 10:57:03;;;;;;;3.95;3.63;;;34.30;48.90;;;;;;5072275;28;20201;-62
2021/06/18 10:59:33;;;;;;;5.70;3.65;;;34.50;47.40;;;;;;5071322;28;20290;-61
2021/06/18 11:02:01;;;;;;;10.18;3.50;;;34.60;46.40;;;;;;5071036;28;20262;-60
2021/06/18 11:04:38;;;;;;;7.63;3.55;;;34.60;46.00;;;;;;5071384;28;20216;-60
2021/06/18 11:07:23;;;;;;;4.20;3.80;;;34.60;47.90;;;;;;5071258;28;20208;-60
2021/06/18 11:09:51;;;;;;;6.43;2.83;;;34.70;47.50;;;;;;5071808;28;20943;-61
2021/06/18 11:12:39;;;;;;;3.92;2.97;;;34.80;42.70;;;;;;5070854;28;20251;-60
2021/06/18 11:15:08;;;;;;;4.65;2.40;;;34.70;42.70;;;;;;5070602;28;20228;-61
2021/06/18 11:17:45;;;;;;;3.10;2.33;;;34.70;41.80;;;;;;5070493;28;20231;-60
2021/06/18 11:20:15;;;;;;;2.80;2.05;;;34.60;40.60;;;;;;5070883;28;20707;-61
2021/06/18 11:22:47;;;;;;;4.07;2.50;;;34.50;40.00;;;;;;5070880;28;20209;-60
2021/06/18 11:25:56;;;;;;;3.53;2.38;;;34.50;40.80;;;;;;5070777;28;20613;-60
2021/06/18 11:28:42;;;;;;;3.72;2.70;;;34.50;39.90;;;;;;5070743;28;20208;-60
2021/06/18 11:31:12;;;;;;;4.88;3.10;;;34.70;42.00;;;;;;5070834;28;20228;-60
2021/06/18 11:33:49;;;;;;;13.45;3.33;;;34.80;43.10;;;;;;5071190;28;20299;-60
2021/06/18 11:36:53;;;;;;;7.10;2.85;;;34.70;40.30;;;;;;5071127;28;20220;-60
2021/06/18 11:39:30;;;;;;;6.65;3.20;;;34.60;40.70;;;;;;5070527;28;20708;-61
2021/06/18 11:42:05;;;;;;;7.75;3.42;;;34.80;42.10;;;;;;5070949;28;20262;-61
2021/06/18 11:44:34;;;;;;;4.15;2.90;;;35.00;42.60;;;;;;5070940;28;20212;-61
2021/06/18 11:47:01;;;;;;;6.22;3.30;;;35.10;42.30;;;;;;5070935;28;20555;-61
2021/06/18 11:49:33;;;;;;;3.80;2.70;;;35.30;42.40;;;;;;5070628;28;20315;-61
2021/06/18 11:52:09;;;;;;;5.20;2.95;;;35.50;42.10;;;;;;5070502;28;20299;-61
2021/06/18 11:54:39;;;;;;;4.63;2.75;;;35.60;41.80;;;;;;5071001;28;20213;-61
2021/06/18 11:57:08;;;;;;;5.30;2.85;;;35.70;40.70;;;;;;5070827;28;20212;-61
2021/06/18 11:59:39;;;;;;;3.10;2.70;;;35.70;40.50;;;;;;5070379;28;20236;-61
2021/06/18 12:02:20;;;;;;;3.95;3.03;;;35.50;40.90;;;;;;5070889;28;20204;-62
2021/06/18 12:04:59;;;;;;;7.93;2.88;;;35.40;41.50;;;;;;5073857;28;20295;-61
2021/06/18 12:07:30;;;;;;;5.00;2.83;;;35.40;41.30;;;;;;5074730;28;20201;-61
2021/06/18 12:09:56;;;;;;;3.50;2.75;;;35.40;41.00;;;;;;5074472;28;20256;-61
2021/06/18 12:12:23;;;;;;;5.03;2.95;;;35.40;40.70;;;;;;5074226;28;20231;-61
2021/06/18 12:14:55;;;;;;;6.40;3.08;;;35.50;40.90;;;;;;5074016;28;20617;-61
2021/06/18 12:17:22;;;;;;;3.45;2.78;;;35.60;40.30;;;;;;5074478;28;20209;-61
2021/06/18 12:19:49;;;;;;;6.97;2.92;;;35.80;40.20;;;;;;5073996;28;20599;-61
2021/06/18 12:22:18;;;;;;;4.80;2.92;;;35.70;41.60;;;;;;5074915;28;20288;-62
2021/06/18 12:24:47;;;;;;;6.00;3.28;;;35.50;41.40;;;;;;5074380;28;20302;-62
2021/06/18 12:27:16;;;;;;;8.93;3.45;;;35.50;41.40;;;;;;5074530;28;20205;-62
2021/06/18 12:29:44;;;;;;;3.50;2.92;;;35.60;41.60;;;;;;5073540;28;20613;-62
2021/06/18 12:32:14;;;;;;;4.55;3.00;;;35.60;41.40;;;;;;5074205;28;20377;-61
2021/06/18 12:34:47;;;;;;;5.53;2.90;;;35.40;41.80;;;;;;5073962;28;20205;-62
2021/06/18 12:37:14;;;;;;;3.15;2.45;;;35.30;41.60;;;;;;5073973;28;20212;-60
2021/06/18 12:39:53;;;;;;;4.38;2.88;;;35.30;41.70;;;;;;5073457;28;20768;-61
2021/06/18 12:42:22;;;;;;;6.00;3.03;;;35.30;41.90;;;;;;5073947;28;20200;-61
2021/06/18 12:45:03;;;;;;;6.63;3.00;;;35.40;41.70;;;;;;5073880;28;20208;-62
2021/06/18 12:47:31;;;;;;;4.00;2.92;;;35.50;41.30;;;;;;5074238;28;20681;-61
2021/06/18 12:49:57;;;;;;;5.57;2.90;;;35.60;40.90;;;;;;5073632;28;20647;-62
2021/06/18 12:52:24;;;;;;;6.32;2.88;;;35.60;41.10;;;;;;5074123;28;20221;-62
2021/06/18 12:55:03;;;;;;;4.50;2.90;;;35.70;40.90;;;;;;5074080;28;20247;-61
2021/06/18 12:57:30;;;;;;;8.13;3.05;;;35.70;39.90;;;;;;5074219;28;20216;-61